Time;durP1;ratioP1;P1;durP2;ratioP2;P2;SDS_P1;SDS_P2;PMS_P1;PMS_P2;Temp;Humidity;BMP_temperature;BMP_pressure;BME280_temperature;BME280_humidity;BME280_pressure;Samples;Min_cycle;Max_cycle;Signal;HPM_P1;HPM_P2
2023/12/02 00:01:54;;;;;;;15.63;7.50;;;-0.10;99.90;;;;;;5042746;28;20095;-69
2023/12/02 00:04:19;;;;;;;16.13;8.10;;;-0.20;99.90;;;;;;5050371;28;20447;-69
2023/12/02 00:06:45;;;;;;;22.80;8.02;;;-0.20;99.90;;;;;;5041566;28;20049;-69
2023/12/02 00:09:11;;;;;;;15.05;7.45;;;-0.20;99.90;;;;;;5046673;28;20049;-69
2023/12/02 00:11:36;;;;;;;15.07;7.43;;;-0.20;99.90;;;;;;5047194;28;20072;-69
2023/12/02 00:14:02;;;;;;;13.27;7.55;;;-0.20;99.90;;;;;;5045832;28;20048;-69
2023/12/02 00:16:28;;;;;;;12.50;6.38;;;-0.20;99.90;;;;;;5041949;28;20045;-69
2023/12/02 00:18:54;;;;;;;10.43;5.53;;;-0.20;99.90;;;;;;5045698;28;20053;-70
2023/12/02 00:21:20;;;;;;;16.83;8.15;;;-0.20;99.90;;;;;;5044402;28;20053;-69
2023/12/02 00:23:46;;;;;;;15.55;8.02;;;-0.30;99.90;;;;;;5046121;28;20147;-69
2023/12/02 00:26:11;;;;;;;31.30;12.98;;;-0.30;99.90;;;;;;5044993;28;20041;-69
2023/12/02 00:28:37;;;;;;;34.30;14.15;;;-0.30;99.90;;;;;;5043262;28;20411;-69
2023/12/02 00:31:03;;;;;;;87.63;34.08;;;-0.40;99.90;;;;;;5043808;28;20056;-69
2023/12/02 00:33:29;;;;;;;39.60;20.63;;;-0.40;99.90;;;;;;5043690;28;20037;-69
2023/12/02 00:35:55;;;;;;;32.50;14.32;;;-0.50;99.90;;;;;;5045326;28;20048;-69
2023/12/02 00:38:21;;;;;;;32.05;12.68;;;-0.50;99.90;;;;;;5042549;28;20045;-69
2023/12/02 00:40:47;;;;;;;14.43;7.32;;;-0.60;99.90;;;;;;5045958;28;20088;-69
2023/12/02 00:43:12;;;;;;;16.02;7.55;;;-0.60;99.90;;;;;;5044601;28;20056;-69
2023/12/02 00:45:38;;;;;;;15.13;7.45;;;-0.60;99.90;;;;;;5040216;28;20047;-69
2023/12/02 00:48:04;;;;;;;14.10;6.47;;;-0.60;99.90;;;;;;5046164;28;20071;-69
2023/12/02 00:50:29;;;;;;;9.30;5.53;;;-0.60;99.90;;;;;;5039855;28;20671;-72
2023/12/02 00:52:55;;;;;;;15.93;7.30;;;-0.60;99.90;;;;;;5048620;28;20032;-71
2023/12/02 00:55:24;;;;;;;16.48;7.85;;;-0.70;99.90;;;;;;5053024;28;20127;-72
2023/12/02 00:57:49;;;;;;;14.48;7.07;;;-0.70;99.90;;;;;;5044203;28;20049;-72
2023/12/02 01:00:16;;;;;;;16.00;7.57;;;-0.70;99.90;;;;;;5044935;28;20100;-72
2023/12/02 01:02:42;;;;;;;14.68;6.47;;;-0.80;99.90;;;;;;5031924;28;20121;-71
2023/12/02 01:05:08;;;;;;;21.38;7.47;;;-0.80;99.90;;;;;;5043430;28;20052;-72
2023/12/02 01:07:34;;;;;;;13.82;5.80;;;-0.80;99.90;;;;;;5044450;28;20056;-71
2023/12/02 01:10:00;;;;;;;19.08;7.30;;;-0.80;99.90;;;;;;5045384;28;20057;-71
2023/12/02 01:12:25;;;;;;;19.10;7.88;;;-0.90;99.90;;;;;;5039841;28;20052;-72
2023/12/02 01:14:52;;;;;;;18.50;9.30;;;-0.90;99.90;;;;;;5052294;28;20037;-72
2023/12/02 01:17:17;;;;;;;18.65;6.55;;;-1.00;99.90;;;;;;5046473;28;20053;-72
2023/12/02 01:19:44;;;;;;;13.55;7.18;;;-1.00;99.90;;;;;;5048459;28;20056;-72
2023/12/02 01:22:10;;;;;;;16.73;7.40;;;-1.00;99.90;;;;;;5040952;28;20404;-71
2023/12/02 01:24:35;;;;;;;11.80;6.80;;;-1.10;99.90;;;;;;5044606;28;20037;-72
2023/12/02 01:27:01;;;;;;;9.00;4.93;;;-1.10;99.90;;;;;;5045827;28;20102;-72
2023/12/02 01:29:26;;;;;;;15.02;7.10;;;-1.00;99.90;;;;;;5042486;28;20171;-71
2023/12/02 01:31:52;;;;;;;14.32;7.18;;;-1.00;99.90;;;;;;5047474;28;20045;-71
2023/12/02 01:34:18;;;;;;;15.68;6.78;;;-1.10;99.90;;;;;;5044787;28;20563;-72
2023/12/02 01:36:45;;;;;;;13.57;6.20;;;-1.10;99.90;;;;;;5044794;28;20120;-72
2023/12/02 01:39:12;;;;;;;17.90;6.43;;;-1.10;99.90;;;;;;5046589;28;20083;-72
2023/12/02 01:41:38;;;;;;;12.93;5.57;;;-1.10;99.90;;;;;;5045157;28;20081;-72
2023/12/02 01:44:04;;;;;;;12.88;6.15;;;-1.20;99.90;;;;;;5040773;28;20075;-72
2023/12/02 01:46:30;;;;;;;7.85;5.10;;;-1.10;99.90;;;;;;5045750;28;20477;-72
2023/12/02 01:48:58;;;;;;;10.20;5.35;;;-1.10;99.90;;;;;;5045311;28;20057;-71
2023/12/02 01:51:25;;;;;;;9.35;5.28;;;-1.10;99.90;;;;;;5044038;28;20041;-72
2023/12/02 01:53:51;;;;;;;15.20;7.25;;;-1.10;99.90;;;;;;5047751;28;20083;-71
2023/12/02 01:56:18;;;;;;;13.75;6.43;;;-1.10;99.90;;;;;;5034735;28;20093;-72
2023/12/02 01:58:44;;;;;;;20.30;9.25;;;-1.10;99.90;;;;;;5036491;28;20045;-72
2023/12/02 02:01:09;;;;;;;18.70;8.70;;;-1.10;99.90;;;;;;5042228;28;20055;-72
2023/12/02 02:03:35;;;;;;;21.23;8.82;;;-1.10;99.90;;;;;;5043038;28;20041;-72
2023/12/02 02:06:01;;;;;;;11.18;4.90;;;-1.10;99.90;;;;;;5039721;28;20103;-71
2023/12/02 02:08:26;;;;;;;15.10;7.35;;;-1.10;99.90;;;;;;5056655;28;20033;-72
2023/12/02 02:10:58;;;;;;;14.52;8.00;;;-1.10;99.90;;;;;;5045300;28;20056;-72
2023/12/02 02:13:25;;;;;;;21.10;8.80;;;-1.10;99.90;;;;;;5050895;28;20045;-72
2023/12/02 02:15:51;;;;;;;12.75;6.80;;;-1.10;99.90;;;;;;5051988;28;20040;-71
2023/12/02 02:18:16;;;;;;;18.73;9.00;;;-1.10;99.90;;;;;;5044367;28;20099;-72
2023/12/02 02:20:51;;;;;;;11.50;6.50;;;-1.10;99.90;;;;;;5045118;28;20124;-72
2023/12/02 02:23:22;;;;;;;18.73;6.55;;;-1.10;99.90;;;;;;5047681;28;20049;-71
2023/12/02 02:25:52;;;;;;;20.38;8.10;;;-1.00;99.90;;;;;;5049404;28;20056;-72
2023/12/02 02:28:26;;;;;;;14.43;7.93;;;-1.00;99.90;;;;;;5048104;28;20098;-71
2023/12/02 02:30:52;;;;;;;12.00;6.07;;;-1.00;99.90;;;;;;5040597;28;20773;-72
2023/12/02 02:33:18;;;;;;;16.48;6.70;;;-1.00;99.90;;;;;;5056532;28;20035;-71
2023/12/02 02:35:44;;;;;;;8.25;5.07;;;-1.00;99.90;;;;;;5044211;28;20680;-72
2023/12/02 02:38:11;;;;;;;17.35;8.25;;;-1.00;99.90;;;;;;5045581;28;20071;-71
2023/12/02 02:40:36;;;;;;;13.77;6.53;;;-1.00;99.90;;;;;;5046862;28;20163;-71
2023/12/02 02:43:02;;;;;;;15.48;6.95;;;-1.00;99.90;;;;;;5049507;28;20552;-72
2023/12/02 02:45:28;;;;;;;16.67;7.57;;;-1.00;99.90;;;;;;5046764;28;20132;-71
2023/12/02 02:47:54;;;;;;;14.13;7.65;;;-1.00;99.90;;;;;;5046100;28;20072;-72
2023/12/02 02:50:19;;;;;;;18.52;7.57;;;-1.00;99.90;;;;;;5047878;28;20049;-71
2023/12/02 02:52:46;;;;;;;18.17;8.35;;;-0.90;99.90;;;;;;5046958;28;20055;-72
2023/12/02 02:55:11;;;;;;;18.42;7.07;;;-0.90;99.90;;;;;;5044888;28;20044;-71
2023/12/02 02:57:37;;;;;;;14.40;4.97;;;-0.90;99.90;;;;;;5048646;28;20562;-71
2023/12/02 03:00:09;;;;;;;13.70;7.28;;;-0.90;99.90;;;;;;5043648;28;20119;-72
2023/12/02 03:02:38;;;;;;;19.70;8.90;;;-0.90;99.90;;;;;;5038806;28;20049;-72
2023/12/02 03:05:05;;;;;;;13.00;7.28;;;-0.90;99.90;;;;;;5042492;28;20049;-72
2023/12/02 03:07:34;;;;;;;16.92;6.13;;;-0.80;99.90;;;;;;5039847;28;20041;-72
2023/12/02 03:10:00;;;;;;;11.20;5.75;;;-0.80;99.90;;;;;;5043800;28;20040;-72
2023/12/02 03:12:26;;;;;;;12.25;5.72;;;-0.80;99.90;;;;;;5048058;28;20436;-71
2023/12/02 03:14:53;;;;;;;16.58;7.80;;;-0.80;99.90;;;;;;5046441;28;20029;-72
2023/12/02 03:17:19;;;;;;;12.80;6.35;;;-0.80;99.90;;;;;;5048950;28;20539;-72
2023/12/02 03:19:46;;;;;;;11.95;6.55;;;-0.80;99.90;;;;;;5046266;28;20161;-72
2023/12/02 03:22:11;;;;;;;16.92;7.43;;;-0.80;99.90;;;;;;5048009;28;20051;-72
2023/12/02 03:24:37;;;;;;;8.25;5.35;;;-0.80;99.90;;;;;;5049006;28;20040;-72
2023/12/02 03:27:03;;;;;;;13.20;6.60;;;-0.80;99.90;;;;;;5040849;28;20610;-72
2023/12/02 03:29:29;;;;;;;9.30;5.68;;;-0.70;99.90;;;;;;5049658;28;20037;-72
2023/12/02 03:31:54;;;;;;;17.77;8.10;;;-0.70;99.90;;;;;;5042484;28;20442;-72
2023/12/02 03:34:20;;;;;;;16.42;6.80;;;-0.70;99.90;;;;;;5047888;28;20071;-72
2023/12/02 03:36:46;;;;;;;10.85;6.10;;;-0.70;99.90;;;;;;5047821;28;20238;-69
2023/12/02 03:39:15;;;;;;;13.45;5.93;;;-0.70;99.90;;;;;;5051562;28;20041;-69
2023/12/02 03:41:41;;;;;;;13.30;6.43;;;-0.60;99.90;;;;;;5046442;28;20049;-69
2023/12/02 03:44:07;;;;;;;10.77;5.35;;;-0.60;99.90;;;;;;5053952;28;20037;-70
2023/12/02 03:46:35;;;;;;;11.18;5.95;;;-0.60;99.90;;;;;;5050061;28;20075;-69
2023/12/02 03:49:01;;;;;;;17.50;6.28;;;-0.60;99.90;;;;;;5040322;28;20544;-69
2023/12/02 03:51:27;;;;;;;10.63;5.70;;;-0.70;99.90;;;;;;5041248;28;20077;-69
2023/12/02 03:53:53;;;;;;;13.23;7.75;;;-0.60;99.90;;;;;;5044297;28;20080;-69
2023/12/02 03:56:18;;;;;;;16.15;6.50;;;-0.60;99.90;;;;;;5045308;28;20089;-69
2023/12/02 03:58:45;;;;;;;17.33;5.95;;;-0.70;99.90;;;;;;5045743;28;20059;-72
2023/12/02 04:01:11;;;;;;;8.18;5.32;;;-0.60;99.90;;;;;;5046072;28;20516;-71
2023/12/02 04:03:37;;;;;;;7.65;4.65;;;-0.60;99.90;;;;;;5044085;28;20072;-72
2023/12/02 04:06:03;;;;;;;7.53;4.78;;;-0.60;99.90;;;;;;5049585;28;20080;-72
2023/12/02 04:08:29;;;;;;;12.18;5.97;;;-0.70;99.90;;;;;;5049833;28;20048;-72
2023/12/02 04:10:55;;;;;;;13.55;8.80;;;-0.70;99.90;;;;;;5038163;28;20044;-71
2023/12/02 04:13:20;;;;;;;12.18;5.82;;;-0.70;99.90;;;;;;5042576;28;20448;-72
2023/12/02 04:15:46;;;;;;;6.70;4.88;;;-0.60;99.90;;;;;;5046243;28;20408;-72
2023/12/02 04:18:12;;;;;;;13.30;7.70;;;-0.60;99.90;;;;;;5044873;28;20447;-72
2023/12/02 04:20:38;;;;;;;12.73;6.82;;;-0.60;99.90;;;;;;5044686;28;20431;-72
2023/12/02 04:23:04;;;;;;;17.33;6.78;;;-0.60;99.90;;;;;;5041534;28;20102;-72
2023/12/02 04:25:30;;;;;;;15.95;7.30;;;-0.60;99.90;;;;;;5046173;28;20554;-72
2023/12/02 04:27:56;;;;;;;11.93;6.75;;;-0.60;99.90;;;;;;5046083;28;20049;-72
2023/12/02 04:30:21;;;;;;;11.65;5.85;;;-0.60;99.90;;;;;;5047228;28;20039;-72
2023/12/02 04:32:47;;;;;;;20.50;10.13;;;-0.60;99.90;;;;;;5044050;28;20049;-72
2023/12/02 04:35:13;;;;;;;11.98;6.43;;;-0.60;99.90;;;;;;5042878;28;20037;-72
2023/12/02 04:37:39;;;;;;;16.48;7.93;;;-0.60;99.90;;;;;;5044957;28;20416;-72
2023/12/02 04:40:10;;;;;;;19.48;9.15;;;-0.60;99.90;;;;;;5042026;28;20132;-72
2023/12/02 04:42:37;;;;;;;15.13;6.78;;;-0.60;99.90;;;;;;5040718;28;20077;-72
2023/12/02 04:45:03;;;;;;;17.48;7.90;;;-0.60;99.90;;;;;;5046093;28;20084;-72
2023/12/02 04:47:29;;;;;;;12.23;6.63;;;-0.60;99.90;;;;;;5047800;28;20508;-72
2023/12/02 04:49:55;;;;;;;14.45;7.72;;;-0.60;99.90;;;;;;5042234;28;20124;-72
2023/12/02 04:52:20;;;;;;;13.45;6.63;;;-0.60;99.90;;;;;;5043782;28;20076;-72
2023/12/02 04:54:46;;;;;;;15.52;8.13;;;-0.60;99.90;;;;;;5045442;28;20037;-72
2023/12/02 04:57:11;;;;;;;16.30;8.75;;;-0.60;99.90;;;;;;5042830;28;20045;-72
2023/12/02 04:59:37;;;;;;;10.48;5.68;;;-0.60;99.90;;;;;;5044048;28;20052;-72
2023/12/02 05:02:03;;;;;;;17.17;6.97;;;-0.60;99.90;;;;;;5040378;28;20127;-72
2023/12/02 05:04:29;;;;;;;18.60;8.13;;;-0.50;99.90;;;;;;5044863;28;20148;-72
2023/12/02 05:06:54;;;;;;;27.27;9.70;;;-0.50;99.90;;;;;;5045718;28;20044;-72
2023/12/02 05:09:21;;;;;;;12.45;6.43;;;-0.50;99.90;;;;;;5046647;28;20259;-72
2023/12/02 05:11:47;;;;;;;23.30;11.13;;;-0.50;99.90;;;;;;5043176;28;20044;-72
2023/12/02 05:14:12;;;;;;;13.48;6.75;;;-0.50;99.90;;;;;;5042255;28;20045;-72
2023/12/02 05:16:42;;;;;;;13.55;7.65;;;-0.50;99.90;;;;;;5044730;28;20507;-72
2023/12/02 05:19:08;;;;;;;15.35;7.45;;;-0.50;99.90;;;;;;5045392;28;20124;-72
2023/12/02 05:21:36;;;;;;;17.63;6.90;;;-0.50;99.90;;;;;;5042422;28;20132;-72
2023/12/02 05:24:01;;;;;;;;;;;-0.50;99.90;;;;;;5033699;28;20234;-72
2023/12/02 05:26:27;;;;;;;9.80;5.00;;;-0.50;99.90;;;;;;5036710;28;20023;-71
2023/12/02 05:28:52;;;;;;;11.18;7.70;;;-0.50;99.90;;;;;;5045226;28;20049;-71
2023/12/02 05:31:19;;;;;;;10.60;6.97;;;-0.40;99.90;;;;;;5037085;28;20036;-72
2023/12/02 05:33:46;;;;;;;17.10;7.97;;;-0.40;99.90;;;;;;5036551;28;20122;-72
2023/12/02 05:36:11;;;;;;;15.50;8.02;;;-0.40;99.90;;;;;;5044507;28;20082;-72
2023/12/02 05:38:37;;;;;;;9.43;5.85;;;-0.40;99.90;;;;;;5044235;28;20053;-72
2023/12/02 05:41:03;;;;;;;8.57;5.50;;;-0.40;99.90;;;;;;5038787;28;20040;-72
2023/12/02 05:43:29;;;;;;;19.75;9.10;;;-0.50;99.90;;;;;;5053675;28;20119;-72
2023/12/02 05:45:55;;;;;;;22.25;9.27;;;-0.50;99.90;;;;;;5075124;28;20072;-72
2023/12/02 05:48:21;;;;;;;20.13;9.07;;;-0.50;99.90;;;;;;5044545;28;20524;-72
2023/12/02 05:50:46;;;;;;;19.17;8.82;;;-0.50;99.90;;;;;;5044171;28;20057;-72
2023/12/02 05:53:12;;;;;;;18.45;7.97;;;-0.50;99.90;;;;;;5042402;28;20462;-71
2023/12/02 05:55:38;;;;;;;17.52;9.25;;;-0.50;99.90;;;;;;5049633;28;20045;-72
2023/12/02 05:58:03;;;;;;;12.48;6.75;;;-0.40;99.90;;;;;;5045126;28;20077;-71
2023/12/02 06:00:29;;;;;;;13.68;7.20;;;-0.40;99.90;;;;;;5048966;28;20053;-72
2023/12/02 06:02:54;;;;;;;15.80;7.13;;;-0.50;99.90;;;;;;5045481;28;20041;-72
2023/12/02 06:05:20;;;;;;;14.77;7.28;;;-0.50;99.90;;;;;;5053069;28;20171;-72
2023/12/02 06:07:46;;;;;;;11.05;6.40;;;-0.50;99.90;;;;;;5050706;28;20272;-72
2023/12/02 06:10:11;;;;;;;11.75;6.63;;;-0.50;99.90;;;;;;5043501;28;20060;-72
2023/12/02 06:12:37;;;;;;;14.07;7.00;;;-0.50;99.90;;;;;;5047011;28;20056;-72
2023/12/02 06:15:04;;;;;;;12.05;6.07;;;-0.50;99.90;;;;;;5050179;28;20045;-72
2023/12/02 06:17:31;;;;;;;15.02;6.00;;;-0.40;99.90;;;;;;5044451;28;20079;-72
2023/12/02 06:19:57;;;;;;;15.40;6.97;;;-0.40;99.90;;;;;;5050717;28;20053;-72
2023/12/02 06:22:22;;;;;;;12.30;6.68;;;-0.40;99.90;;;;;;5047833;28;20047;-72
2023/12/02 06:24:48;;;;;;;13.02;7.70;;;-0.50;99.90;;;;;;5048588;28;20657;-72
2023/12/02 06:27:13;;;;;;;11.45;6.07;;;-0.50;99.90;;;;;;5044443;28;20040;-72
2023/12/02 06:29:39;;;;;;;20.33;10.30;;;-0.50;99.90;;;;;;5043057;28;20052;-72
2023/12/02 06:32:05;;;;;;;19.35;10.10;;;-0.50;99.90;;;;;;5044666;28;20444;-72
2023/12/02 06:34:31;;;;;;;18.75;8.25;;;-0.50;99.90;;;;;;5046783;28;20043;-72
2023/12/02 06:36:56;;;;;;;18.10;9.50;;;-0.50;99.90;;;;;;5044379;28;20037;-71
2023/12/02 06:39:22;;;;;;;17.20;9.10;;;-0.50;99.90;;;;;;5042548;28;20126;-71
2023/12/02 06:41:48;;;;;;;21.25;9.55;;;-0.50;99.90;;;;;;5041462;28;21820;-71
2023/12/02 06:44:13;;;;;;;19.48;9.50;;;-0.50;99.90;;;;;;5044390;28;20102;-71
2023/12/02 06:46:39;;;;;;;9.02;5.20;;;-0.50;99.90;;;;;;5042079;28;20044;-71
2023/12/02 06:49:05;;;;;;;13.77;7.47;;;-0.50;99.90;;;;;;5040330;28;20045;-71
2023/12/02 06:51:30;;;;;;;13.52;5.55;;;-0.50;99.90;;;;;;5045098;28;20037;-71
2023/12/02 06:53:57;;;;;;;13.45;7.70;;;-0.50;99.90;;;;;;5045137;28;20037;-71
2023/12/02 06:56:24;;;;;;;19.43;9.73;;;-0.40;99.90;;;;;;5039995;28;20397;-71
2023/12/02 06:58:51;;;;;;;18.33;9.23;;;-0.50;99.90;;;;;;5033014;28;20057;-71
2023/12/02 07:01:27;;;;;;;16.90;8.52;;;-0.50;99.90;;;;;;5041651;28;20795;-71
2023/12/02 07:03:54;;;;;;;20.15;10.35;;;-0.50;99.90;;;;;;5037408;28;20507;-71
2023/12/02 07:06:20;;;;;;;19.08;8.50;;;-0.50;99.90;;;;;;5057632;28;20055;-71
2023/12/02 07:08:50;;;;;;;9.82;5.95;;;-0.40;99.90;;;;;;5032808;28;20481;-71
2023/12/02 07:11:17;;;;;;;17.67;6.28;;;-0.50;99.90;;;;;;5036300;28;20075;-71
2023/12/02 07:13:43;;;;;;;20.42;10.95;;;-0.40;99.90;;;;;;5042124;28;20041;-70
2023/12/02 07:16:09;;;;;;;15.52;7.40;;;-0.50;99.90;;;;;;5069964;28;20049;-71
2023/12/02 07:18:35;;;;;;;16.92;8.65;;;-0.40;99.90;;;;;;5035046;28;20053;-71
2023/12/02 07:21:01;;;;;;;26.85;8.70;;;-0.40;99.90;;;;;;5034709;28;20507;-70
2023/12/02 07:23:30;;;;;;;13.65;7.13;;;-0.40;99.90;;;;;;5044576;28;20048;-70
2023/12/02 07:25:56;;;;;;;18.17;9.15;;;-0.40;99.90;;;;;;5037514;28;20053;-71
2023/12/02 07:28:23;;;;;;;16.27;8.63;;;-0.40;99.90;;;;;;5047567;28;20099;-71
2023/12/02 07:30:49;;;;;;;12.90;6.43;;;-0.30;99.90;;;;;;5043824;28;20076;-71
2023/12/02 07:33:15;;;;;;;15.43;8.65;;;-0.40;99.90;;;;;;5034122;28;20135;-71
2023/12/02 07:35:42;;;;;;;16.60;7.57;;;-0.40;99.90;;;;;;5034559;28;20515;-71
2023/12/02 07:38:08;;;;;;;21.48;7.35;;;-0.40;99.90;;;;;;5028829;28;20162;-71
2023/12/02 07:40:35;;;;;;;13.25;7.70;;;-0.30;99.90;;;;;;5039642;28;20053;-71
2023/12/02 07:43:01;;;;;;;17.90;8.57;;;-0.40;99.90;;;;;;5042279;28;20041;-72
2023/12/02 07:45:30;;;;;;;16.73;7.43;;;-0.40;99.90;;;;;;5044462;28;20073;-71
2023/12/02 07:47:56;;;;;;;12.57;7.70;;;-0.40;99.90;;;;;;5040050;28;20175;-71
2023/12/02 07:50:22;;;;;;;19.90;8.15;;;-0.40;99.90;;;;;;5044875;28;20067;-71
2023/12/02 07:52:48;;;;;;;15.18;7.15;;;-0.40;99.90;;;;;;5039336;28;20045;-71
2023/12/02 07:55:14;;;;;;;15.52;8.68;;;-0.50;99.90;;;;;;5035923;28;20033;-71
2023/12/02 07:57:39;;;;;;;17.50;8.63;;;-0.50;99.90;;;;;;5040049;28;20053;-71
2023/12/02 08:00:07;;;;;;;18.52;7.93;;;-0.50;99.90;;;;;;5038817;28;20071;-72
2023/12/02 08:02:33;;;;;;;18.10;9.23;;;-0.50;99.90;;;;;;5038719;28;20053;-71
2023/12/02 08:04:59;;;;;;;12.77;6.53;;;-0.50;99.90;;;;;;5035085;28;20044;-71
2023/12/02 08:07:25;;;;;;;20.40;9.68;;;-0.50;99.90;;;;;;5035103;28;20045;-71
2023/12/02 08:09:50;;;;;;;21.80;9.77;;;-0.50;99.90;;;;;;5035967;28;20598;-71
2023/12/02 08:12:16;;;;;;;16.13;8.90;;;-0.50;99.90;;;;;;5038539;28;20607;-72
2023/12/02 08:14:42;;;;;;;23.25;8.50;;;-0.40;99.90;;;;;;5042625;28;20095;-72
2023/12/02 08:17:07;;;;;;;17.00;8.68;;;-0.40;99.90;;;;;;5044116;28;20048;-71
2023/12/02 08:19:33;;;;;;;17.50;9.60;;;-0.40;99.90;;;;;;5043324;28;20481;-70
2023/12/02 08:21:59;;;;;;;15.27;8.90;;;-0.40;99.90;;;;;;5041621;28;20055;-70
2023/12/02 08:24:25;;;;;;;23.45;9.25;;;-0.40;99.90;;;;;;5043690;28;20045;-71
2023/12/02 08:26:50;;;;;;;16.73;7.45;;;-0.40;99.90;;;;;;5048758;28;20101;-72
2023/12/02 08:29:16;;;;;;;18.77;9.23;;;-0.40;99.90;;;;;;5042307;28;20045;-73
2023/12/02 08:31:42;;;;;;;17.58;9.57;;;-0.40;99.90;;;;;;5039758;28;20120;-71
2023/12/02 08:34:07;;;;;;;18.90;8.98;;;-0.40;99.90;;;;;;5047891;28;20047;-71
2023/12/02 08:36:33;;;;;;;22.25;8.43;;;-0.40;99.90;;;;;;5045534;28;20041;-71
2023/12/02 08:38:59;;;;;;;20.65;9.80;;;-0.40;99.90;;;;;;5036979;28;20125;-71
2023/12/02 08:41:24;;;;;;;18.67;7.20;;;-0.40;99.90;;;;;;5044125;28;20048;-71
2023/12/02 08:43:50;;;;;;;26.25;12.25;;;-0.40;99.90;;;;;;5047283;28;20037;-71
2023/12/02 08:46:19;;;;;;;22.30;9.80;;;-0.40;99.90;;;;;;5045104;28;20049;-73
2023/12/02 08:48:45;;;;;;;24.58;9.55;;;-0.40;99.90;;;;;;5036558;28;20391;-71
2023/12/02 08:51:11;;;;;;;15.63;8.27;;;-0.40;99.90;;;;;;5034874;28;20124;-71
2023/12/02 08:53:37;;;;;;;18.80;8.10;;;-0.30;99.90;;;;;;5044563;28;20144;-71
2023/12/02 08:56:04;;;;;;;16.95;7.57;;;-0.40;99.90;;;;;;5039228;28;20094;-70
2023/12/02 08:58:29;;;;;;;23.98;8.15;;;-0.40;99.90;;;;;;5050244;28;20057;-74
2023/12/02 09:00:55;;;;;;;16.20;7.07;;;-0.40;99.90;;;;;;5060577;28;20193;-72
2023/12/02 09:03:21;;;;;;;17.27;8.45;;;-0.40;99.90;;;;;;5046007;28;20119;-72
2023/12/02 09:05:46;;;;;;;13.45;7.03;;;-0.40;99.90;;;;;;5046719;28;20045;-71
2023/12/02 09:08:12;;;;;;;20.65;8.43;;;-0.30;99.90;;;;;;5044970;28;20049;-71
2023/12/02 09:10:37;;;;;;;14.05;5.03;;;-0.30;99.90;;;;;;5057612;28;20072;-71
2023/12/02 09:13:32;;;;;;;19.45;7.70;;;-0.30;99.90;;;;;;5057107;28;20085;-71
2023/12/02 09:16:00;;;;;;;11.48;7.28;;;-0.30;99.90;;;;;;5052850;28;20057;-72
2023/12/02 09:18:36;;;;;;;16.35;8.00;;;-0.20;99.90;;;;;;5052196;28;20045;-71
2023/12/02 09:21:03;;;;;;;16.95;7.32;;;-0.20;99.90;;;;;;5035864;28;20040;-71
2023/12/02 09:23:29;;;;;;;20.98;8.70;;;-0.20;99.90;;;;;;5049263;28;20116;-71
2023/12/02 09:25:59;;;;;;;17.75;10.00;;;-0.20;99.90;;;;;;5049191;28;20071;-71
2023/12/02 09:28:27;;;;;;;12.80;7.13;;;-0.10;99.90;;;;;;5051277;28;20628;-71
2023/12/02 09:31:08;;;;;;;17.48;8.75;;;-0.20;99.90;;;;;;5049868;28;20494;-71
2023/12/02 09:33:34;;;;;;;17.55;8.27;;;-0.10;99.90;;;;;;5045470;28;20118;-71
2023/12/02 09:36:02;;;;;;;15.35;7.82;;;-0.10;99.90;;;;;;5038218;28;20041;-71
2023/12/02 09:38:28;;;;;;;20.13;9.73;;;-0.10;99.90;;;;;;5043456;28;20635;-71
2023/12/02 09:41:32;;;;;;;21.92;10.13;;;-0.10;99.90;;;;;;5049970;28;20136;-72
2023/12/02 09:44:13;;;;;;;16.40;7.22;;;-0.10;99.90;;;;;;5045549;28;20614;-71
2023/12/02 09:47:18;;;;;;;22.90;11.10;;;0.00;99.90;;;;;;5049291;28;20057;-70
2023/12/02 09:49:59;;;;;;;27.15;12.05;;;-0.10;99.90;;;;;;5027536;28;20281;-71
2023/12/02 09:52:37;;;;;;;21.45;9.50;;;0.00;99.90;;;;;;5049350;28;20045;-71
2023/12/02 09:55:43;;;;;;;25.13;10.10;;;0.00;99.90;;;;;;5048115;28;20045;-71
2023/12/02 09:58:35;;;;;;;20.95;10.18;;;0.00;99.90;;;;;;5049382;28;20091;-74
2023/12/02 10:01:08;;;;;;;25.15;10.73;;;0.00;99.90;;;;;;5044383;28;20055;-72
2023/12/02 10:03:37;;;;;;;24.63;10.13;;;0.00;99.90;;;;;;5049265;28;20123;-70
2023/12/02 10:06:24;;;;;;;23.58;10.10;;;0.00;99.90;;;;;;5037863;28;20044;-70
2023/12/02 10:09:09;;;;;;;30.05;12.25;;;0.00;99.90;;;;;;5039068;28;20366;-71
2023/12/02 10:11:56;;;;;;;24.20;11.55;;;0.00;99.90;;;;;;5042376;28;20053;-71
2023/12/02 10:14:25;;;;;;;27.70;11.50;;;0.00;99.90;;;;;;5038137;28;20033;-70
2023/12/02 10:16:53;;;;;;;23.05;10.52;;;0.00;99.90;;;;;;5049307;28;20546;-70
2023/12/02 10:19:52;;;;;;;24.48;10.75;;;0.00;99.90;;;;;;5038829;28;20049;-71
2023/12/02 10:22:23;;;;;;;21.55;9.13;;;0.00;99.90;;;;;;5047960;28;20065;-71
2023/12/02 10:25:03;;;;;;;20.48;10.40;;;0.00;99.90;;;;;;5050049;28;20532;-71
2023/12/02 10:27:32;;;;;;;34.22;12.40;;;0.00;99.90;;;;;;5040907;28;20047;-71
2023/12/02 10:30:16;;;;;;;20.92;8.23;;;0.00;99.90;;;;;;5041563;28;20136;-71
2023/12/02 10:32:41;;;;;;;17.48;9.15;;;0.00;99.90;;;;;;5034326;28;20535;-71
2023/12/02 10:35:07;;;;;;;25.20;9.73;;;0.00;99.90;;;;;;5043010;28;20048;-71
2023/12/02 10:37:39;;;;;;;16.60;8.18;;;0.10;99.90;;;;;;5047427;28;20059;-72
2023/12/02 10:40:09;;;;;;;19.98;9.52;;;0.10;99.90;;;;;;5040433;28;20124;-71
2023/12/02 10:42:54;;;;;;;21.65;9.90;;;0.10;99.90;;;;;;5044753;28;20120;-71
2023/12/02 10:45:25;;;;;;;24.92;10.63;;;0.10;99.90;;;;;;5039813;28;20135;-72
2023/12/02 10:47:52;;;;;;;23.80;10.40;;;0.10;99.90;;;;;;5052509;28;20048;-70
2023/12/02 10:50:18;;;;;;;20.95;10.98;;;0.10;99.90;;;;;;5050507;28;20025;-70
2023/12/02 10:53:04;;;;;;;26.67;10.30;;;0.10;99.90;;;;;;5052201;28;20159;-70
2023/12/02 10:55:32;;;;;;;31.50;12.88;;;0.10;99.90;;;;;;5047477;28;20097;-70
2023/12/02 10:58:02;;;;;;;26.13;10.90;;;0.20;99.90;;;;;;5041444;28;20068;-71
2023/12/02 11:00:30;;;;;;;21.25;10.85;;;0.20;99.90;;;;;;5031816;28;20100;-71
2023/12/02 11:03:13;;;;;;;24.55;10.82;;;0.20;99.90;;;;;;5041447;28;21431;-71
2023/12/02 11:05:49;;;;;;;22.15;10.02;;;0.20;99.90;;;;;;5050308;28;20036;-69
2023/12/02 11:08:47;;;;;;;27.08;11.60;;;0.20;99.90;;;;;;5052820;28;20048;-74
2023/12/02 11:11:26;;;;;;;18.40;9.85;;;0.30;99.90;;;;;;5056875;28;20055;-72
2023/12/02 11:13:56;;;;;;;25.63;9.95;;;0.30;99.90;;;;;;5048849;28;20044;-72
2023/12/02 11:16:24;;;;;;;22.52;9.93;;;0.30;99.90;;;;;;5050401;28;20148;-71
2023/12/02 11:18:53;;;;;;;23.77;10.23;;;0.30;99.90;;;;;;5049061;28;20116;-72
2023/12/02 11:21:33;;;;;;;26.77;11.95;;;0.40;99.90;;;;;;5049515;28;20447;-71
2023/12/02 11:24:33;;;;;;;16.63;8.95;;;0.40;99.90;;;;;;5049332;28;20049;-71
2023/12/02 11:27:20;;;;;;;26.55;11.00;;;0.40;99.90;;;;;;5035797;28;20099;-71
2023/12/02 11:30:37;;;;;;;25.30;11.73;;;0.50;99.90;;;;;;5050791;28;20362;-71
2023/12/02 11:33:40;;;;;;;18.40;10.07;;;0.50;99.90;;;;;;5031483;28;20080;-71
2023/12/02 11:36:29;;;;;;;18.33;9.25;;;0.50;99.90;;;;;;5049166;28;20106;-70
2023/12/02 11:38:57;;;;;;;22.98;9.73;;;0.50;99.90;;;;;;5048813;28;20535;-72
2023/12/02 11:41:25;;;;;;;19.77;8.50;;;0.50;99.90;;;;;;5045480;28;20443;-73
2023/12/02 11:44:08;;;;;;;16.80;9.27;;;0.60;99.90;;;;;;5046989;28;20040;-71
2023/12/02 11:47:07;;;;;;;23.63;10.57;;;0.60;99.90;;;;;;5054041;28;20033;-74
2023/12/02 11:49:51;;;;;;;22.08;11.75;;;0.60;99.90;;;;;;5025865;28;20209;-70
2023/12/02 11:52:58;;;;;;;22.40;8.75;;;0.60;99.90;;;;;;5051336;28;20044;-72
2023/12/02 11:55:36;;;;;;;25.52;10.60;;;0.60;99.90;;;;;;5079969;28;20047;-72
2023/12/02 11:58:26;;;;;;;28.98;10.13;;;0.60;99.90;;;;;;5048183;28;20049;-73
2023/12/02 12:00:58;;;;;;;21.25;9.07;;;0.70;99.90;;;;;;5037929;28;20053;-70
2023/12/02 12:03:42;;;;;;;26.67;11.02;;;0.70;99.90;;;;;;5046624;28;20122;-70
2023/12/02 12:06:25;;;;;;;21.95;10.55;;;0.70;99.90;;;;;;5048046;28;20055;-72
2023/12/02 12:09:05;;;;;;;24.02;11.38;;;0.80;99.90;;;;;;5045036;28;20053;-69
2023/12/02 12:11:32;;;;;;;21.17;10.63;;;0.80;99.90;;;;;;5049093;28;20032;-70
2023/12/02 12:13:59;;;;;;;26.50;11.60;;;0.80;99.90;;;;;;5075161;28;20057;-74
2023/12/02 12:16:25;;;;;;;19.02;8.60;;;0.80;99.90;;;;;;5053415;28;20036;-74
2023/12/02 12:18:50;;;;;;;21.13;9.93;;;0.80;99.90;;;;;;5048544;28;20052;-74
2023/12/02 12:21:16;;;;;;;27.58;11.73;;;0.80;99.90;;;;;;5047447;28;20041;-74
2023/12/02 12:23:41;;;;;;;25.73;11.98;;;0.80;99.90;;;;;;5043701;28;20524;-74
2023/12/02 12:26:08;;;;;;;21.55;10.98;;;0.80;99.90;;;;;;5048434;28;20137;-73
2023/12/02 12:28:35;;;;;;;25.25;12.30;;;0.80;99.90;;;;;;5046785;28;20048;-74
2023/12/02 12:31:00;;;;;;;23.63;11.35;;;0.80;99.90;;;;;;5045222;28;20056;-75
2023/12/02 12:33:28;;;;;;;27.35;11.57;;;0.90;99.90;;;;;;5044373;28;20537;-74
2023/12/02 12:35:54;;;;;;;19.80;9.90;;;0.90;99.90;;;;;;5045334;28;20563;-74
2023/12/02 12:38:22;;;;;;;27.75;13.05;;;1.00;99.90;;;;;;5061549;28;20115;-74
2023/12/02 12:40:50;;;;;;;28.58;12.00;;;1.00;99.90;;;;;;5059861;28;20500;-75
2023/12/02 12:43:18;;;;;;;36.55;13.50;;;1.10;99.90;;;;;;5036650;28;20087;-74
2023/12/02 12:45:43;;;;;;;30.63;12.52;;;1.10;99.90;;;;;;5054442;28;20055;-75
2023/12/02 12:48:10;;;;;;;30.33;13.02;;;1.10;99.90;;;;;;5046542;28;20041;-76